Time;durP1;ratioP1;P1;durP2;ratioP2;P2;SDS_P1;SDS_P2;PMS_P1;PMS_P2;Temp;Humidity;BMP_temperature;BMP_pressure;BME280_temperature;BME280_humidity;BME280_pressure;Samples;Min_cycle;Max_cycle;Signal;HPM_P1;HPM_P2
2023/09/15 00:02:00;;;;;;;5.90;4.50;;;;;;;21.11;100.00;100615.69;5071709;28;20024;-71
2023/09/15 00:04:26;;;;;;;8.95;4.35;;;;;;;21.16;100.00;100657.59;5071790;28;20479;-71
2023/09/15 00:06:52;;;;;;;8.75;5.00;;;;;;;21.27;100.00;100662.97;5070056;28;20070;-72
2023/09/15 00:09:18;;;;;;;7.22;4.63;;;;;;;21.28;100.00;100630.97;5071442;28;20506;-72
2023/09/15 00:11:47;;;;;;;8.52;4.75;;;;;;;21.34;100.00;100666.81;5071420;28;20036;-72
2023/09/15 00:14:14;;;;;;;7.10;4.55;;;;;;;21.39;100.00;100644.09;5077594;28;20029;-71
2023/09/15 00:16:41;;;;;;;5.38;4.68;;;;;;;21.14;100.00;100612.88;5075092;28;20024;-72
2023/09/15 00:19:08;;;;;;;8.18;4.70;;;;;;;21.65;100.00;100665.78;5053312;28;20410;-71
2023/09/15 00:21:33;;;;;;;9.45;5.28;;;;;;;21.28;100.00;100603.38;5071079;28;20453;-70
2023/09/15 00:24:01;;;;;;;9.00;5.30;;;;;;;21.27;100.00;100604.28;5071093;28;20040;-71
2023/09/15 00:26:29;;;;;;;9.73;5.40;;;;;;;21.33;100.00;100592.75;5068891;28;20174;-72
2023/09/15 00:28:55;;;;;;;7.00;5.03;;;;;;;21.65;100.00;100645.06;5053229;28;20036;-72
2023/09/15 00:31:20;;;;;;;8.60;5.28;;;;;;;21.53;100.00;100647.47;5071230;28;20515;-72
2023/09/15 00:33:47;;;;;;;8.15;5.00;;;;;;;21.58;100.00;100647.19;5070869;28;20525;-71
2023/09/15 00:36:12;;;;;;;7.18;5.07;;;;;;;21.43;100.00;100632.63;5070966;28;20041;-72
2023/09/15 00:38:38;;;;;;;6.05;5.10;;;;;;;21.00;100.00;100589.59;5069601;28;20028;-72
2023/09/15 00:41:03;;;;;;;9.13;5.13;;;;;;;21.07;100.00;100578.00;5071048;28;20032;-71
2023/09/15 00:43:29;;;;;;;6.97;5.25;;;;;;;21.39;100.00;100639.75;5072051;28;20044;-73
2023/09/15 00:45:55;;;;;;;7.90;5.35;;;;;;;21.30;100.00;100618.78;5052833;28;20119;-72
2023/09/15 00:48:21;;;;;;;7.22;5.05;;;;;;;21.32;100.00;100632.44;5070833;28;20048;-72
2023/09/15 00:50:47;;;;;;;7.65;4.82;;;;;;;21.07;100.00;100650.41;5070894;28;20115;-71
2023/09/15 00:53:19;;;;;;;7.82;4.65;;;;;;;21.21;100.00;100653.81;5070457;28;20574;-71
2023/09/15 00:55:47;;;;;;;6.57;4.53;;;;;;;21.05;100.00;100649.66;5070638;28;20037;-72
2023/09/15 00:58:15;;;;;;;7.25;4.53;;;;;;;21.38;100.00;100638.09;5071003;28;20029;-72
2023/09/15 01:00:42;;;;;;;7.18;4.15;;;;;;;20.92;100.00;100600.41;5070808;28;20119;-72
2023/09/15 01:03:09;;;;;;;5.95;4.65;;;;;;;21.03;100.00;100642.00;5070617;28;20033;-72
2023/09/15 01:05:36;;;;;;;9.73;4.97;;;;;;;20.61;100.00;100588.50;5070754;28;20414;-72
2023/09/15 01:08:03;;;;;;;7.75;4.60;;;;;;;21.26;100.00;100640.59;5070616;28;20585;-71
2023/09/15 01:10:29;;;;;;;7.22;4.68;;;;;;;20.99;100.00;100596.53;5069775;28;20419;-73
2023/09/15 01:12:54;;;;;;;7.15;4.72;;;;;;;20.76;100.00;100591.09;5069531;28;20040;-73
2023/09/15 01:15:28;;;;;;;7.35;4.43;;;;;;;21.10;100.00;100621.75;5071064;28;20028;-72
2023/09/15 01:18:13;;;;;;;6.30;4.60;;;;;;;21.10;100.00;100632.94;5053338;28;20113;-72
2023/09/15 01:20:47;;;;;;;5.55;4.40;;;;;;;20.95;100.00;100626.09;5052617;28;20119;-72
2023/09/15 01:23:37;;;;;;;6.13;4.38;;;;;;;21.11;100.00;100615.69;5070989;28;20044;-72
2023/09/15 01:26:21;;;;;;;5.47;4.45;;;;;;;21.16;100.00;100606.69;5070782;28;20043;-72
2023/09/15 01:28:49;;;;;;;6.45;4.75;;;;;;;20.95;100.00;100617.50;5052559;28;20067;-72
2023/09/15 01:31:17;;;;;;;9.25;4.70;;;;;;;20.91;100.00;100618.59;5054589;28;20105;-72
2023/09/15 01:33:44;;;;;;;8.40;4.60;;;;;;;20.45;100.00;100545.56;5074683;28;20043;-72
2023/09/15 01:36:09;;;;;;;6.13;4.60;;;;;;;20.92;100.00;100602.19;5073955;28;20506;-72
2023/09/15 01:38:35;;;;;;;7.20;4.55;;;;;;;20.74;100.00;100602.34;5074789;28;20039;-73
2023/09/15 01:41:00;;;;;;;8.82;4.57;;;;;;;21.20;100.00;100612.50;5073902;28;20020;-72
2023/09/15 01:43:26;;;;;;;5.70;4.47;;;;;;;20.97;100.00;100613.91;5074008;28;20039;-73
2023/09/15 01:45:51;;;;;;;6.32;4.55;;;;;;;21.06;100.00;100609.94;5074338;28;20397;-72
2023/09/15 01:48:18;;;;;;;6.75;4.55;;;;;;;20.53;100.00;100507.19;5074550;28;20040;-72
2023/09/15 01:50:47;;;;;;;6.72;4.55;;;;;;;20.42;100.00;100504.44;5073965;28;20498;-73
2023/09/15 01:53:13;;;;;;;7.93;4.75;;;;;;;20.69;100.00;100547.53;5074071;28;20024;-71
2023/09/15 01:55:40;;;;;;;9.35;5.03;;;;;;;20.73;100.00;100582.59;5073974;28;20028;-73
2023/09/15 01:58:06;;;;;;;7.68;5.13;;;;;;;20.77;100.00;100566.91;5073876;28;20039;-71
2023/09/15 02:00:35;;;;;;;6.30;4.90;;;;;;;20.94;100.00;100602.88;5073568;28;20032;-72
2023/09/15 02:03:01;;;;;;;9.15;5.35;;;;;;;20.99;100.00;100603.47;5056094;28;20036;-73
2023/09/15 02:05:27;;;;;;;7.13;5.28;;;;;;;20.85;100.00;100537.06;5055727;28;20028;-72
2023/09/15 02:07:52;;;;;;;6.65;5.28;;;;;;;20.95;100.00;100614.91;5072513;28;20115;-71
2023/09/15 02:10:18;;;;;;;9.50;5.97;;;;;;;20.83;100.00;100551.00;5073255;28;20033;-72
2023/09/15 02:12:43;;;;;;;10.70;5.70;;;;;;;20.70;100.00;100620.69;5073311;28;20429;-71
2023/09/15 02:15:10;;;;;;;8.50;5.82;;;;;;;20.60;100.00;100567.94;5055630;28;20028;-72
2023/09/15 02:17:37;;;;;;;8.52;5.10;;;;;;;20.68;100.00;100584.63;5055541;28;20040;-72
2023/09/15 02:20:11;;;;;;;7.05;5.07;;;;;;;21.10;100.00;100603.66;5073486;28;20501;-72
2023/09/15 02:22:37;;;;;;;6.68;4.82;;;;;;;20.58;100.00;100574.94;5073554;28;20123;-71
2023/09/15 02:25:03;;;;;;;7.15;4.80;;;;;;;20.82;100.00;100601.06;5071997;28;20138;-72
2023/09/15 02:27:30;;;;;;;8.13;5.10;;;;;;;20.73;100.00;100600.69;5073103;28;20514;-73
2023/09/15 02:29:55;;;;;;;8.30;4.53;;;;;;;20.37;100.00;100516.78;5073551;28;20044;-74
2023/09/15 02:32:21;;;;;;;9.40;5.00;;;;;;;20.60;100.00;100567.94;5085168;28;20063;-73
2023/09/15 02:34:46;;;;;;;7.22;5.00;;;;;;;20.73;100.00;100618.78;5093125;28;20474;-72
2023/09/15 02:37:12;;;;;;;9.23;4.88;;;;;;;20.33;100.00;100534.22;5035450;28;20029;-73
2023/09/15 02:39:37;;;;;;;7.45;5.28;;;;;;;20.84;100.00;100618.13;5053091;28;20040;-71
2023/09/15 02:42:03;;;;;;;11.75;4.95;;;;;;;20.37;100.00;100553.78;5052642;28;20047;-73
2023/09/15 02:44:29;;;;;;;7.60;4.97;;;;;;;20.67;100.00;100603.66;5052764;28;20032;-73
2023/09/15 02:46:55;;;;;;;8.23;5.13;;;;;;;20.65;100.00;100621.00;5053482;28;20411;-74
2023/09/15 02:49:20;;;;;;;7.15;5.00;;;;;;;20.80;100.00;100632.16;5052892;28;20033;-73
2023/09/15 02:51:45;;;;;;;7.38;5.07;;;;;;;20.52;100.00;100620.03;5052935;28;20040;-73
2023/09/15 02:54:11;;;;;;;9.75;5.43;;;;;;;20.47;100.00;100587.63;5035190;28;20037;-73
2023/09/15 02:56:36;;;;;;;9.15;5.32;;;;;;;20.57;100.00;100637.88;5052522;28;20033;-73
2023/09/15 02:59:02;;;;;;;8.65;5.35;;;;;;;20.40;100.00;100638.84;5035010;28;20091;-73
2023/09/15 03:01:28;;;;;;;10.60;5.30;;;;;;;20.12;100.00;100581.94;5053020;28;20029;-73
2023/09/15 03:03:53;;;;;;;7.13;4.88;;;;;;;20.76;100.00;100627.28;5052574;28;20033;-71
2023/09/15 03:06:19;;;;;;;10.30;4.95;;;;;;;20.71;100.00;100573.28;5052559;28;20557;-73
2023/09/15 03:08:44;;;;;;;9.30;5.55;;;;;;;20.80;100.00;100639.91;5034663;28;20119;-74
2023/09/15 03:11:18;;;;;;;11.98;5.57;;;;;;;20.61;100.00;100595.41;5052781;28;20033;-71
2023/09/15 03:13:44;;;;;;;8.38;5.80;;;;;;;20.59;100.00;100623.94;5071949;28;20037;-72
2023/09/15 03:16:11;;;;;;;8.50;5.55;;;;;;;20.65;100.00;100661.50;5072622;28;20100;-71
2023/09/15 03:18:37;;;;;;;10.15;5.63;;;;;;;20.81;100.00;100645.91;5072243;28;20112;-71
2023/09/15 03:21:03;;;;;;;6.97;5.45;;;;;;;20.68;100.00;100600.13;5054602;28;20473;-71
2023/09/15 03:23:29;;;;;;;9.18;5.78;;;;;;;20.79;100.00;100596.91;5065984;28;20028;-72
2023/09/15 03:25:59;;;;;;;11.57;5.65;;;;;;;20.55;100.00;100594.03;5069432;28;20085;-72
2023/09/15 03:28:24;;;;;;;11.40;5.82;;;;;;;20.88;100.00;100657.59;5072273;28;20115;-73
2023/09/15 03:30:50;;;;;;;9.13;5.65;;;;;;;20.85;100.00;100662.91;5071438;28;20076;-71
2023/09/15 03:33:15;;;;;;;6.90;4.97;;;;;;;21.00;100.00;100633.53;5057306;28;20037;-72
2023/09/15 03:35:41;;;;;;;11.00;5.90;;;;;;;20.88;100.00;100644.66;5052468;28;20516;-71
2023/09/15 03:38:06;;;;;;;11.25;6.25;;;;;;;20.81;100.00;100649.34;5051928;28;20021;-71
2023/09/15 03:40:31;;;;;;;8.98;5.43;;;;;;;20.46;100.00;100565.31;5051751;28;20517;-72
2023/09/15 03:42:57;;;;;;;11.38;5.55;;;;;;;20.78;100.00;100638.38;5051787;28;20115;-71
2023/09/15 03:45:22;;;;;;;6.30;5.35;;;;;;;20.53;100.00;100571.78;5069964;28;20032;-71
2023/09/15 03:47:48;;;;;;;11.65;5.45;;;;;;;20.47;100.00;100611.75;5070464;28;20111;-70
2023/09/15 03:50:19;;;;;;;9.07;5.43;;;;;;;20.91;100.00;100628.94;5070010;28;20039;-71
2023/09/15 03:52:45;;;;;;;;;;;;;;;20.83;100.00;100631.16;5069953;28;20032;-70
2023/09/15 03:55:10;;;;;;;10.63;5.25;;;;;;;20.76;100.00;100617.75;5070060;28;19912;-70
2023/09/15 03:57:37;;;;;;;8.32;5.03;;;;;;;20.58;100.00;100617.09;5069786;28;20090;-73
2023/09/15 04:00:04;;;;;;;8.40;5.30;;;;;;;20.43;100.00;100612.84;5069411;28;20131;-72
2023/09/15 04:02:30;;;;;;;11.25;5.28;;;;;;;21.56;100.00;100603.31;5069425;28;20028;-73
2023/09/15 04:04:55;;;;;;;9.98;5.47;;;;;;;20.53;100.00;100633.78;5087229;28;20415;-74
2023/09/15 04:07:22;;;;;;;8.40;5.40;;;;;;;20.52;100.00;100632.16;5070494;28;20126;-71
2023/09/15 04:09:47;;;;;;;11.07;5.45;;;;;;;20.50;100.00;100629.63;5069792;28;20024;-71
2023/09/15 04:12:13;;;;;;;12.18;5.63;;;;;;;20.64;100.00;100649.50;5069474;28;20047;-69
2023/09/15 04:14:38;;;;;;;8.93;5.60;;;;;;;21.20;100.00;100618.53;5071222;28;20044;-72
2023/09/15 04:17:04;;;;;;;11.88;6.65;;;;;;;20.47;100.00;100657.41;5077386;28;20021;-78
2023/09/15 04:19:30;;;;;;;9.00;5.63;;;;;;;20.58;100.00;100661.03;5051112;28;20454;-73
2023/09/15 04:21:56;;;;;;;11.50;5.82;;;;;;;20.41;100.00;100670.66;5050869;28;20021;-71
2023/09/15 04:24:21;;;;;;;11.40;6.03;;;;;;;20.37;100.00;100605.44;5059926;28;20408;-69
2023/09/15 04:26:47;;;;;;;10.98;6.15;;;;;;;20.30;100.00;100606.69;5069711;28;20467;-71
2023/09/15 04:29:12;;;;;;;13.23;6.32;;;;;;;20.15;100.00;100594.66;5052837;28;20044;-71
2023/09/15 04:31:38;;;;;;;10.55;5.85;;;;;;;20.48;100.00;100653.91;5070888;28;20056;-72
2023/09/15 04:34:04;;;;;;;10.13;5.60;;;;;;;20.39;100.00;100588.09;5070855;28;20071;-72
2023/09/15 04:36:30;;;;;;;7.47;5.43;;;;;;;19.83;100.00;100622.28;5070868;28;20097;-72
2023/09/15 04:38:56;;;;;;;18.63;5.20;;;;;;;20.64;100.00;100659.81;5070736;28;20115;-72
2023/09/15 04:41:21;;;;;;;8.30;5.38;;;;;;;19.97;100.00;100618.94;5071031;28;20063;-70
2023/09/15 04:43:47;;;;;;;7.28;5.40;;;;;;;20.27;100.00;100593.97;5052643;28;20559;-71
2023/09/15 04:46:13;;;;;;;9.70;5.15;;;;;;;20.46;100.00;100676.44;5069466;28;20028;-71
2023/09/15 04:48:39;;;;;;;13.88;5.63;;;;;;;21.23;100.00;100675.25;5048482;28;20055;-73
2023/09/15 04:51:05;;;;;;;13.18;5.72;;;;;;;20.84;100.00;100687.94;5071837;28;20063;-73
2023/09/15 04:53:30;;;;;;;9.57;5.55;;;;;;;20.83;100.00;100685.44;5089228;28;20054;-73
2023/09/15 04:55:56;;;;;;;10.50;5.50;;;;;;;20.71;100.00;100690.41;5088721;28;20051;-73
2023/09/15 04:58:21;;;;;;;15.73;8.85;;;;;;;20.88;100.00;100667.91;5089117;28;20119;-70
2023/09/15 05:00:48;;;;;;;13.48;6.53;;;;;;;20.76;100.00;100625.50;5088042;28;20605;-72
2023/09/15 05:03:13;;;;;;;11.60;6.32;;;;;;;21.18;100.00;100694.53;5089950;28;20089;-71
2023/09/15 05:05:39;;;;;;;12.57;5.93;;;;;;;21.25;100.00;100703.63;5090921;28;20985;-72
2023/09/15 05:08:04;;;;;;;17.48;8.75;;;;;;;20.82;100.00;100637.25;5075835;28;20035;-71
2023/09/15 05:10:30;;;;;;;12.52;5.75;;;;;;;20.74;100.00;100617.84;5094044;28;20036;-73
2023/09/15 05:12:55;;;;;;;9.75;5.43;;;;;;;21.20;100.00;100696.13;5094113;28;20035;-71
2023/09/15 05:15:21;;;;;;;8.45;5.30;;;;;;;20.62;100.00;100628.06;5094617;28;20031;-69
2023/09/15 05:17:46;;;;;;;8.75;5.60;;;;;;;20.74;100.00;100640.28;5094122;28;20032;-71
2023/09/15 05:20:11;;;;;;;8.18;5.53;;;;;;;20.98;100.00;100641.41;5094680;28;20506;-72
2023/09/15 05:22:37;;;;;;;10.95;5.97;;;;;;;21.08;100.00;100727.91;5094780;28;20030;-72
2023/09/15 05:25:05;;;;;;;8.63;5.85;;;;;;;21.11;100.00;100706.19;5094182;28;20035;-72
2023/09/15 05:27:31;;;;;;;8.63;6.07;;;;;;;21.17;100.00;100636.00;5095213;28;20445;-72
2023/09/15 05:29:58;;;;;;;11.85;6.30;;;;;;;21.36;100.00;100712.41;5094414;28;20130;-72
2023/09/15 05:32:23;;;;;;;10.77;5.90;;;;;;;21.29;100.00;100716.25;5076378;28;20119;-72
2023/09/15 05:34:49;;;;;;;11.82;6.20;;;;;;;21.06;100.00;100669.41;5094412;28;20103;-73
2023/09/15 05:37:15;;;;;;;10.60;6.00;;;;;;;21.63;100.00;100709.03;5094444;28;20032;-72
2023/09/15 05:39:40;;;;;;;10.35;6.30;;;;;;;21.67;100.00;100710.53;5076172;28;20106;-72
2023/09/15 05:42:05;;;;;;;15.65;6.40;;;;;;;21.45;100.00;100664.44;5093316;28;20027;-73
2023/09/15 05:44:31;;;;;;;9.38;6.18;;;;;;;21.43;100.00;100656.72;5076322;28;20086;-72
2023/09/15 05:46:56;;;;;;;10.43;5.65;;;;;;;22.03;100.00;100728.94;5076455;28;20038;-72
2023/09/15 05:49:22;;;;;;;10.73;5.70;;;;;;;21.86;100.00;100685.16;5094049;28;20093;-70
2023/09/15 05:51:47;;;;;;;9.30;5.53;;;;;;;21.62;100.00;100658.19;5094271;28;20100;-72
2023/09/15 05:54:13;;;;;;;10.52;5.82;;;;;;;22.02;100.00;100733.31;5094682;28;20067;-73
2023/09/15 05:56:39;;;;;;;12.20;5.78;;;;;;;22.04;100.00;100746.16;5094380;28;20028;-73
2023/09/15 05:59:05;;;;;;;8.55;5.53;;;;;;;21.79;100.00;100684.69;5094000;28;20142;-72
2023/09/15 06:01:30;;;;;;;12.10;5.28;;;;;;;22.01;100.00;100742.00;5094235;28;20413;-73
2023/09/15 06:03:56;;;;;;;10.65;5.38;;;;;;;22.21;100.00;100735.56;5094346;28;20031;-72
2023/09/15 06:06:21;;;;;;;10.50;5.43;;;;;;;22.41;100.00;100740.28;5093731;28;20478;-74
2023/09/15 06:08:46;;;;;;;12.88;5.45;;;;;;;22.26;100.00;100679.91;5094286;28;20028;-73
2023/09/15 06:11:12;;;;;;;21.00;5.57;;;;;;;22.50;100.00;100744.06;5093735;28;20024;-72
2023/09/15 06:13:37;;;;;;;12.68;5.30;;;;;;;22.18;100.00;100697.75;5075648;28;20060;-74
2023/09/15 06:16:07;;;;;;;14.15;5.65;;;;;;;22.43;100.00;100684.84;5094074;28;20181;-73
2023/09/15 06:18:33;;;;;;;11.20;5.32;;;;;;;22.37;100.00;100687.84;5092731;28;20043;-73
2023/09/15 06:20:59;;;;;;;8.02;5.03;;;;;;;22.41;100.00;100698.81;5075800;28;20035;-74
2023/09/15 06:23:24;;;;;;;18.90;8.27;;;;;;;22.26;100.00;100755.06;5094020;28;20028;-73
2023/09/15 06:25:51;;;;;;;19.45;8.68;;;;;;;22.61;100.00;100731.25;5075631;28;20028;-73
2023/09/15 06:28:17;;;;;;;21.25;9.30;;;;;;;22.47;100.00;100777.94;5093413;28;20024;-72
2023/09/15 06:30:42;;;;;;;19.23;7.38;;;;;;;22.84;100.00;100800.63;5093776;28;20452;-73
2023/09/15 06:33:08;;;;;;;18.48;7.70;;;;;;;22.65;100.00;100810.50;5093570;28;20036;-71
2023/09/15 06:35:34;;;;;;;15.45;8.05;;;;;;;22.67;100.00;100809.47;5074984;28;20445;-72
2023/09/15 06:38:00;;;;;;;11.65;6.60;;;;;;;23.13;100.00;100802.13;5093778;28;20129;-74
2023/09/15 06:40:26;;;;;;;10.77;6.15;;;;;;;22.70;100.00;100766.97;5093824;28;20127;-74
2023/09/15 06:42:51;;;;;;;11.38;6.05;;;;;;;23.03;100.00;100799.31;5094673;28;20599;-73
2023/09/15 06:45:17;;;;;;;10.27;5.63;;;;;;;22.82;100.00;100828.41;5075593;28;20039;-73
2023/09/15 06:47:42;;;;;;;7.38;5.00;;;;;;;22.60;100.00;100763.31;5094619;28;20036;-73
2023/09/15 06:50:08;;;;;;;9.98;5.00;;;;;;;22.95;100.00;100829.28;5108731;28;20106;-73
2023/09/15 06:52:33;;;;;;;10.45;4.70;;;;;;;22.85;100.00;100787.53;5100678;28;20453;-74
2023/09/15 06:54:59;;;;;;;14.48;5.10;;;;;;;22.89;100.00;100788.16;5063036;28;20033;-74
2023/09/15 06:57:24;;;;;;;11.55;5.45;;;;;;;22.97;100.00;100841.22;5072228;28;20032;-73
2023/09/15 06:59:51;;;;;;;10.88;5.13;;;;;;;23.25;100.00;100833.25;5072693;28;20119;-75
2023/09/15 07:02:16;;;;;;;12.80;5.40;;;;;;;23.02;100.00;100812.34;5073081;28;20039;-74
2023/09/15 07:04:43;;;;;;;10.68;5.45;;;;;;;22.99;100.00;100867.06;5071462;28;20033;-74
2023/09/15 07:07:09;;;;;;;7.45;4.53;;;;;;;22.81;100.00;100812.03;5072897;28;20047;-73
2023/09/15 07:09:35;;;;;;;8.35;4.47;;;;;;;22.90;100.00;100878.00;5071600;28;20024;-73
2023/09/15 07:12:00;;;;;;;7.32;4.57;;;;;;;22.78;100.00;100902.16;5054398;28;20115;-70
2023/09/15 07:14:25;;;;;;;6.82;4.57;;;;;;;23.17;100.00;100868.44;5054511;28;20024;-70
2023/09/15 07:16:51;;;;;;;10.20;4.80;;;;;;;23.03;100.00;100863.31;5072163;28;20115;-73
2023/09/15 07:19:16;;;;;;;8.05;4.57;;;;;;;23.03;100.00;100868.53;5071207;28;20048;-72
2023/09/15 07:21:43;;;;;;;12.43;4.97;;;;;;;22.91;100.00;100900.44;5071215;28;20038;-72
2023/09/15 07:24:09;;;;;;;12.63;5.07;;;;;;;23.55;100.00;100878.91;5072416;28;20051;-72
2023/09/15 07:26:34;;;;;;;9.70;4.72;;;;;;;23.30;100.00;100903.03;5070840;28;20487;-72
2023/09/15 07:29:00;;;;;;;7.85;4.97;;;;;;;23.36;100.00;100836.94;5072272;28;20418;-70
2023/09/15 07:31:27;;;;;;;12.18;4.72;;;;;;;23.77;100.00;100872.16;5064323;28;20049;-72
2023/09/15 07:33:52;;;;;;;11.88;4.35;;;;;;;23.83;100.00;100918.50;5032106;28;20029;-71
2023/09/15 07:36:18;;;;;;;11.13;4.72;;;;;;;23.41;100.00;100863.44;5032402;28;20025;-72
2023/09/15 07:38:43;;;;;;;11.10;5.43;;;;;;;23.94;100.00;100864.06;5032497;28;20037;-74
2023/09/15 07:41:08;;;;;;;30.02;22.63;;;;;;;23.64;100.00;100860.09;5032587;28;20037;-72
2023/09/15 07:43:34;;;;;;;13.75;9.40;;;;;;;24.11;100.00;100849.91;5031684;28;20506;-72
2023/09/15 07:45:59;;;;;;;13.23;7.18;;;;;;;24.07;100.00;100916.88;5031874;28;20033;-71
2023/09/15 07:48:25;;;;;;;9.63;5.28;;;;;;;24.33;100.00;100890.81;5031895;28;20021;-72
2023/09/15 07:50:50;;;;;;;18.17;5.53;;;;;;;24.63;100.00;100917.25;5031566;28;20037;-71
2023/09/15 07:53:16;;;;;;;15.45;5.38;;;;;;;24.91;100.00;100857.13;5031679;28;20026;-71
2023/09/15 07:55:41;;;;;;;8.25;5.43;;;;;;;25.26;100.00;100889.19;5046797;28;20033;-72
2023/09/15 07:58:07;;;;;;;10.00;5.22;;;;;;;25.77;100.00;100890.50;5031756;28;20499;-71
2023/09/15 08:00:32;;;;;;;11.32;4.65;;;;;;;25.61;100.00;100908.25;5031125;28;20038;-69
2023/09/15 08:02:58;;;;;;;12.93;4.90;;;;;;;25.57;100.00;100919.84;5031429;28;20025;-71
2023/09/15 08:05:23;;;;;;;10.07;5.32;;;;;;;25.77;100.00;100861.84;5031309;28;20134;-71
2023/09/15 08:07:49;;;;;;;7.93;4.65;;;;;;;25.94;100.00;100833.63;5031510;28;20032;-70
2023/09/15 08:10:18;;;;;;;10.43;5.07;;;;;;;26.41;100.00;100844.63;5031439;28;20033;-70
2023/09/15 08:12:43;;;;;;;14.80;5.57;;;;;;;26.36;100.00;100830.31;5031506;28;20025;-70
2023/09/15 08:15:09;;;;;;;9.88;5.40;;;;;;;26.52;100.00;100880.31;5031229;28;20099;-71
2023/09/15 08:17:34;;;;;;;17.30;5.95;;;;;;;26.64;100.00;100840.19;5031192;28;20164;-70
2023/09/15 08:20:00;;;;;;;14.23;5.78;;;;;;;26.91;100.00;100903.22;5031275;28;20052;-71
2023/09/15 08:22:27;;;;;;;14.38;5.65;;;;;;;26.47;100.00;100898.09;5031187;28;20481;-71
2023/09/15 08:24:53;;;;;;;22.60;6.00;;;;;;;26.23;100.00;100840.03;5046626;28;20030;-71
2023/09/15 08:27:19;;;;;;;23.60;6.50;;;;;;;26.87;100.00;100823.50;5031196;28;20136;-71
2023/09/15 08:29:45;;;;;;;15.70;6.05;;;;;;;27.63;100.00;100788.34;5038263;28;20510;-70
2023/09/15 08:32:14;;;;;;;10.10;5.25;;;;;;;27.82;100.00;100853.78;5070548;28;20036;-70
2023/09/15 08:34:41;;;;;;;9.85;5.28;;;;;;;27.29;100.00;100809.50;5070510;28;20127;-71
2023/09/15 08:37:07;;;;;;;8.98;5.65;;;;;;;26.73;100.00;100865.56;5071033;28;20025;-71
2023/09/15 08:39:32;;;;;;;8.52;5.50;;;;;;;27.03;100.00;100857.84;5071262;28;20036;-71
2023/09/15 08:42:07;;;;;;;10.35;5.57;;;;;;;26.21;100.00;100836.72;5070387;28;20111;-72
2023/09/15 08:44:33;;;;;;;10.57;5.05;;;;;;;26.83;100.00;100860.41;5070880;28;20074;-71
2023/09/15 08:47:00;;;;;;;14.13;5.65;;;;;;;26.23;100.00;100775.66;5070969;28;20033;-71
2023/09/15 08:49:27;;;;;;;16.58;5.15;;;;;;;26.45;100.00;100876.50;5071064;28;20024;-71
2023/09/15 08:51:55;;;;;;;28.25;5.95;;;;;;;26.50;100.00;100867.34;5070956;28;20032;-71
2023/09/15 08:54:21;;;;;;;26.77;5.90;;;;;;;26.26;100.00;100876.31;5069596;28;20391;-73
2023/09/15 08:56:47;;;;;;;29.48;5.82;;;;;;;26.03;100.00;100888.50;5070270;28;20040;-70
2023/09/15 08:59:15;;;;;;;27.55;5.63;;;;;;;26.20;100.00;100809.81;5069106;28;20032;-71
2023/09/15 09:01:40;;;;;;;24.98;5.93;;;;;;;26.67;100.00;100859.97;5071005;28;20068;-70
2023/09/15 09:04:06;;;;;;;24.70;5.57;;;;;;;26.91;100.00;100853.63;5071098;28;20063;-70
2023/09/15 09:06:34;;;;;;;21.33;5.82;;;;;;;27.02;100.00;100806.56;5069411;28;20035;-69
2023/09/15 09:09:02;;;;;;;13.50;5.28;;;;;;;27.29;100.00;100816.50;5070513;28;20043;-70
2023/09/15 09:11:28;;;;;;;16.95;6.22;;;;;;;27.32;100.00;100801.38;5070691;28;20021;-70
2023/09/15 09:13:54;;;;;;;10.38;5.60;;;;;;;27.17;100.00;100851.47;5070231;28;20131;-69
2023/09/15 09:16:20;;;;;;;10.35;5.45;;;;;;;27.81;100.00;100826.78;5070443;28;20546;-70
2023/09/15 09:18:56;;;;;;;9.68;5.90;;;;;;;29.31;100.00;100780.09;5052497;28;20028;-71
2023/09/15 09:21:24;;;;;;;14.63;5.28;;;;;;;29.18;100.00;100787.44;5070366;28;20469;-70
2023/09/15 09:23:49;;;;;;;15.07;6.88;;;;;;;28.74;100.00;100791.47;5068803;28;20071;-70
2023/09/15 09:26:15;;;;;;;13.25;8.80;;;;;;;29.59;100.00;100758.19;5070201;28;20056;-70
2023/09/15 09:28:40;;;;;;;10.60;5.22;;;;;;;29.67;100.00;100711.06;5069997;28;20037;-72
2023/09/15 09:31:08;;;;;;;12.02;6.15;;;;;;;28.83;100.00;100793.28;5052220;28;20071;-71
2023/09/15 09:33:36;;;;;;;14.93;5.80;;;;;;;29.37;100.00;100761.19;5070517;28;20029;-70
2023/09/15 09:36:12;;;;;;;14.20;6.35;;;;;;;29.75;100.00;100679.69;5070678;28;20028;-71
2023/09/15 09:38:39;;;;;;;8.07;4.93;;;;;;;28.89;100.00;100724.63;5067479;28;20036;-71
2023/09/15 09:41:05;;;;;;;7.22;5.10;;;;;;;29.60;100.00;100756.38;5060160;28;20029;-73
2023/09/15 09:43:33;;;;;;;13.18;5.43;;;;;;;29.17;100.00;100716.84;5066037;28;20115;-73
2023/09/15 09:45:59;;;;;;;7.72;5.50;;;;;;;29.31;100.00;100739.94;5067042;28;20033;-73
2023/09/15 09:48:26;;;;;;;10.38;5.68;;;;;;;29.03;100.00;100729.41;5066192;28;20032;-75
2023/09/15 09:50:54;;;;;;;13.65;6.07;;;;;;;28.66;100.00;100809.66;5070468;28;20029;-74
2023/09/15 09:53:32;;;;;;;9.95;5.30;;;;;;;28.75;100.00;100795.75;5056407;28;20478;-71
2023/09/15 09:55:58;;;;;;;8.98;5.43;;;;;;;28.98;100.00;100763.03;5073214;28;20416;-74
2023/09/15 09:58:24;;;;;;;10.90;6.28;;;;;;;29.21;100.00;100711.16;5073950;28;20032;-74
2023/09/15 10:00:50;;;;;;;10.85;5.47;;;;;;;28.70;100.00;100729.06;5072991;28;20025;-72
2023/09/15 10:03:17;;;;;;;11.73;6.57;;;;;;;29.47;100.00;100719.19;5055947;28;20154;-72
2023/09/15 10:05:42;;;;;;;13.13;5.45;;;;;;;30.01;100.00;100739.34;5075231;28;20101;-73
2023/09/15 10:08:09;;;;;;;13.77;5.95;;;;;;;29.35;100.00;100763.13;5062040;28;20028;-73
2023/09/15 10:10:40;;;;;;;13.73;5.90;;;;;;;29.28;100.00;100727.94;5076593;28;20479;-72
2023/09/15 10:13:07;;;;;;;15.32;5.93;;;;;;;29.57;100.00;100719.97;5073823;28;20020;-73
2023/09/15 10:15:34;;;;;;;11.68;5.43;;;;;;;29.61;100.00;100758.88;5073992;28;20029;-73
2023/09/15 10:18:01;;;;;;;8.70;6.03;;;;;;;28.86;100.00;100740.59;5073199;28;20036;-73
2023/09/15 10:20:27;;;;;;;13.57;5.95;;;;;;;29.05;100.00;100789.50;5073389;28;20038;-72
2023/09/15 10:22:54;;;;;;;12.20;6.30;;;;;;;29.36;100.00;100759.50;5073265;28;20043;-73
2023/09/15 10:25:21;;;;;;;11.75;5.57;;;;;;;29.82;100.00;100656.34;5073640;28;20020;-72
2023/09/15 10:27:46;;;;;;;10.38;5.57;;;;;;;30.04;100.00;100718.88;5073510;28;20032;-73
2023/09/15 10:30:13;;;;;;;9.52;6.07;;;;;;;30.50;100.00;100692.41;5073490;28;20051;-72
2023/09/15 10:32:40;;;;;;;10.05;5.57;;;;;;;30.61;100.00;100636.16;5073416;28;20040;-73
2023/09/15 10:35:06;;;;;;;10.18;5.97;;;;;;;30.11;100.00;100674.50;5073649;28;20060;-73
2023/09/15 10:37:33;;;;;;;8.52;6.10;;;;;;;29.32;100.00;100744.22;5073351;28;21147;-72
2023/09/15 10:39:59;;;;;;;8.70;6.20;;;;;;;29.08;100.00;100711.44;5073612;28;20036;-72
2023/09/15 10:42:26;;;;;;;12.45;5.80;;;;;;;30.69;100.00;100684.31;5054968;28;20422;-73
2023/09/15 10:44:52;;;;;;;9.23;5.43;;;;;;;30.99;100.00;100608.63;5072981;28;20067;-73
2023/09/15 10:47:18;;;;;;;9.65;5.65;;;;;;;30.98;100.00;100667.44;5073395;28;20475;-73
2023/09/15 10:49:54;;;;;;;6.28;5.22;;;;;;;30.21;100.00;100707.53;5072880;28;20032;-74
2023/09/15 10:52:33;;;;;;;10.43;5.40;;;;;;;29.88;100.00;100613.78;5073338;28;20036;-72
2023/09/15 10:54:59;;;;;;;8.25;6.05;;;;;;;30.27;100.00;100692.97;5073219;28;20481;-72
2023/09/15 10:57:25;;;;;;;11.82;5.90;;;;;;;31.07;100.00;100667.31;5072590;28;20036;-73
2023/09/15 10:59:55;;;;;;;10.93;5.93;;;;;;;30.67;100.00;100664.44;5072297;28;20025;-73
2023/09/15 11:02:21;;;;;;;8.00;6.07;;;;;;;30.55;100.00;100627.09;5054862;28;20025;-74
2023/09/15 11:04:48;;;;;;;12.25;6.00;;;;;;;31.51;100.00;100626.75;5072474;28;20036;-72
2023/09/15 11:07:17;;;;;;;10.77;6.22;;;;;;;31.68;100.00;100603.91;5072829;28;20058;-73
2023/09/15 11:09:43;;;;;;;13.73;5.90;;;;;;;30.78;100.00;100551.22;5072680;28;20032;-72
2023/09/15 11:12:12;;;;;;;11.55;6.22;;;;;;;30.62;100.00;100661.47;5072562;28;20032;-73